Terminal Aerodrome Forecast
Issued by NWS Albuquerque, NM

Home | Current Version | Previous Version | Text Only | Print | Product List | Glossary On
Versions: 1 2 3 4 5 6 7 8 9 10 11 12
027
FTUS45 KABQ 171120
TAFABQ
TAF
KABQ 171120Z 1712/1812 VRB06KT P6SM SCT100 BKN150
     FM172100 17006KT P6SM SCT080 BKN140
     FM180200 13006KT P6SM BKN060=

USA.gov is the U.S. government's official web portal to all federal, state and local government web resources and services.